createdAt,value
2023-05-04T00:01:37.665Z,102476.03
2023-05-04T00:03:41.004Z,102478.69
2023-05-04T00:05:44.388Z,102483.88
2023-05-04T00:07:47.573Z,102481.28
2023-05-04T00:09:51.515Z,102477.03
2023-05-04T00:11:54.700Z,102472.72
2023-05-04T00:13:57.861Z,102472.78
2023-05-04T00:16:02.461Z,102477.16
2023-05-04T00:18:05.759Z,102478.03
2023-05-04T00:20:10.173Z,102468.56
2023-05-04T00:22:13.547Z,102471.22
2023-05-04T00:24:16.758Z,102469.50
2023-05-04T00:26:19.922Z,102469.53
2023-05-04T00:28:24.215Z,102467.00
2023-05-04T00:30:27.442Z,102467.91
2023-05-04T00:32:32.398Z,102463.59
2023-05-04T00:34:35.717Z,102468.81
2023-05-04T00:36:39.031Z,102468.88
2023-05-04T00:38:50.327Z,102466.31
2023-05-04T00:40:53.541Z,102465.47
2023-05-04T00:42:56.763Z,102465.50
2023-05-04T00:45:00.010Z,102462.06
2023-05-04T00:47:04.023Z,102456.94
2023-05-04T00:49:09.407Z,102458.69
2023-05-04T00:51:14.073Z,102450.06
2023-05-04T00:53:17.271Z,102452.72
2023-05-04T00:55:20.713Z,102451.88
2023-05-04T00:57:24.197Z,102448.44
2023-05-04T00:59:27.574Z,102461.44
2023-05-04T01:01:30.890Z,102456.25
2023-05-04T01:03:35.092Z,102452.81
2023-05-04T01:05:44.213Z,102449.38
2023-05-04T01:07:57.425Z,102448.53
2023-05-04T01:10:06.053Z,102440.78
2023-05-04T01:12:13.796Z,102444.28
2023-05-04T01:14:17.364Z,102439.97
2023-05-04T01:16:20.869Z,102440.84
2023-05-04T01:18:24.825Z,102435.72
2023-05-04T01:20:28.258Z,102436.59
2023-05-04T01:22:33.695Z,102428.84
2023-05-04T01:24:37.034Z,102429.72
2023-05-04T01:26:43.047Z,102431.47
2023-05-04T01:28:51.531Z,102436.69
2023-05-04T01:31:01.979Z,102431.53
2023-05-04T01:33:05.712Z,102428.97
2023-05-04T01:35:09.894Z,102425.53
2023-05-04T01:37:13.094Z,102423.00
2023-05-04T01:39:17.871Z,102426.47
2023-05-04T01:41:21.500Z,102429.94
2023-05-04T01:43:25.550Z,102428.22
2023-05-04T01:45:28.764Z,102429.97
2023-05-04T01:47:32.065Z,102421.34
2023-05-04T01:49:35.350Z,102418.78
2023-05-04T01:51:38.556Z,102421.41
2023-05-04T01:53:41.966Z,102419.66
2023-05-04T01:55:47.311Z,102411.91
2023-05-04T01:57:50.498Z,102417.09
2023-05-04T01:59:54.787Z,102412.78
2023-05-04T02:01:58.082Z,102414.53
2023-05-04T02:04:02.776Z,102416.28
2023-05-04T02:06:06.213Z,102408.53
2023-05-04T02:08:09.403Z,102417.19
2023-05-04T02:10:12.977Z,102419.78
2023-05-04T02:12:19.283Z,102411.16
2023-05-04T02:14:22.477Z,102408.63
2023-05-04T02:16:25.740Z,102408.63
2023-05-04T02:18:28.996Z,102411.22
2023-05-04T02:20:32.171Z,102407.78
2023-05-04T02:22:35.317Z,102412.97
2023-05-04T02:24:40.395Z,102409.53
2023-05-04T02:26:43.595Z,102402.63
2023-05-04T02:28:48.341Z,102406.09
2023-05-04T02:30:51.695Z,102399.19
2023-05-04T02:32:54.935Z,102402.66
2023-05-04T02:34:58.548Z,102405.28
2023-05-04T02:37:01.804Z,102414.78
2023-05-04T02:39:04.978Z,102401.84
2023-05-04T02:41:08.188Z,102399.25
2023-05-04T02:43:11.983Z,102395.81
2023-05-04T02:45:16.726Z,102395.81
2023-05-04T02:47:20.169Z,102393.22
2023-05-04T02:49:23.401Z,102402.72
2023-05-04T02:51:27.396Z,102391.50
2023-05-04T02:53:30.660Z,102392.38
2023-05-04T02:55:33.919Z,102389.78
2023-05-04T02:57:37.157Z,102387.19
2023-05-04T02:59:40.373Z,102382.03
2023-05-04T03:01:45.007Z,102385.47
2023-05-04T03:03:48.501Z,102383.75
2023-05-04T03:05:51.740Z,102380.31
2023-05-04T03:07:55.296Z,102381.16
2023-05-04T03:09:58.538Z,102380.31
2023-05-04T03:12:01.804Z,102383.75
2023-05-04T03:14:05.109Z,102378.59
2023-05-04T03:16:08.879Z,102373.41
2023-05-04T03:18:13.762Z,102372.56
2023-05-04T03:20:17.221Z,102370.03
2023-05-04T03:22:20.494Z,102371.78
2023-05-04T03:24:23.834Z,102377.81
2023-05-04T03:26:27.006Z,102373.53
2023-05-04T03:28:30.213Z,102370.09
2023-05-04T03:30:33.571Z,102367.50
2023-05-04T03:32:39.086Z,102372.69
2023-05-04T03:34:45.801Z,102367.53
2023-05-04T03:36:49.930Z,102375.28
2023-05-04T03:38:53.198Z,102377.03
2023-05-04T03:40:56.822Z,102382.22
2023-05-04T03:43:00.047Z,102377.91
2023-05-04T03:45:04.325Z,102383.94
2023-05-04T03:47:08.198Z,102381.34
2023-05-04T03:49:11.499Z,102377.03
2023-05-04T03:51:16.742Z,102379.63
2023-05-04T03:53:19.987Z,102368.41
2023-05-04T03:55:23.468Z,102383.06
2023-05-04T03:57:27.036Z,102378.75
2023-05-04T03:59:31.737Z,102385.66
2023-05-04T04:01:35.592Z,102383.91
2023-05-04T04:03:39.259Z,102380.44
2023-05-04T04:05:42.720Z,102378.69
2023-05-04T04:07:47.271Z,102381.25
2023-05-04T04:09:50.530Z,102382.03
2023-05-04T04:11:53.732Z,102377.69
2023-05-04T04:13:57.121Z,102381.09
2023-05-04T04:16:00.432Z,102378.47
2023-05-04T04:18:03.812Z,102381.88
2023-05-04T04:20:09.028Z,102380.91
2023-05-04T04:22:12.745Z,102388.63
2023-05-04T04:24:17.468Z,102379.91
2023-05-04T04:26:21.641Z,102374.66
2023-05-04T04:28:24.864Z,102374.56
2023-05-04T04:30:28.942Z,102377.91
2023-05-04T04:32:34.151Z,102383.03
2023-05-04T04:34:38.693Z,102379.47
2023-05-04T04:36:41.940Z,102381.09
2023-05-04T04:38:45.510Z,102380.16
2023-05-04T04:40:50.088Z,102381.78
2023-05-04T04:42:53.433Z,102372.19
2023-05-04T04:44:57.193Z,102370.34
2023-05-04T04:47:00.999Z,102378.94
2023-05-04T04:49:04.372Z,102371.94
2023-05-04T04:51:11.616Z,102371.88
2023-05-04T04:53:14.873Z,102370.06
2023-05-04T04:55:18.133Z,102374.25
2023-05-04T04:57:22.703Z,102377.63
2023-05-04T04:59:25.993Z,102380.13
2023-05-04T05:01:30.004Z,102377.44
2023-05-04T05:03:33.848Z,102377.31
2023-05-04T05:05:37.154Z,102383.31
2023-05-04T05:07:40.363Z,102381.50
2023-05-04T05:09:43.839Z,102377.06
2023-05-04T05:11:47.108Z,102381.28
2023-05-04T05:13:51.704Z,102385.47
2023-05-04T05:15:54.969Z,102382.72
2023-05-04T05:17:58.342Z,102377.34
2023-05-04T05:20:01.655Z,102391.03
2023-05-04T05:22:05.090Z,102383.97
2023-05-04T05:24:08.288Z,102380.31
2023-05-04T05:26:11.849Z,102388.78
2023-05-04T05:28:15.792Z,102389.50
2023-05-04T05:30:20.585Z,102386.78
2023-05-04T05:32:23.910Z,102384.88
2023-05-04T05:34:27.409Z,102386.44
2023-05-04T05:36:30.561Z,102388.06
2023-05-04T05:38:33.897Z,102382.75
2023-05-04T05:40:37.698Z,102377.31
2023-05-04T05:42:42.827Z,102373.69
2023-05-04T05:44:46.173Z,102381.34
2023-05-04T05:46:50.791Z,102370.72
2023-05-04T05:48:54.424Z,102360.09
2023-05-04T05:50:57.670Z,102368.56
2023-05-04T05:53:00.933Z,102374.38
2023-05-04T05:55:04.227Z,102378.53
2023-05-04T05:57:07.482Z,102377.44
2023-05-04T05:59:10.692Z,102376.28
2023-05-04T06:01:14.779Z,102379.50
2023-05-04T06:03:19.653Z,102370.47
2023-05-04T06:05:23.887Z,102371.03
2023-05-04T06:07:27.102Z,102371.47
2023-05-04T06:09:30.348Z,102373.69
2023-05-04T06:11:33.622Z,102373.22
2023-05-04T06:13:36.834Z,102366.69
2023-05-04T06:15:40.092Z,102367.09
2023-05-04T06:17:43.295Z,102365.81
2023-05-04T06:19:50.751Z,102372.38
2023-05-04T06:21:54.128Z,102363.25
2023-05-04T06:23:57.369Z,102360.28
2023-05-04T06:26:00.539Z,102358.94
2023-05-04T06:28:03.933Z,102362.78
2023-05-04T06:30:08.586Z,102355.31
2023-05-04T06:32:12.052Z,102362.59
2023-05-04T06:34:17.052Z,102365.53
2023-05-04T06:36:21.964Z,102362.44
2023-05-04T06:38:25.273Z,102358.47
2023-05-04T06:40:28.544Z,102367.56
2023-05-04T06:42:31.939Z,102362.66
2023-05-04T06:44:37.926Z,102362.22
2023-05-04T06:46:41.330Z,102364.34
2023-05-04T06:48:44.801Z,102359.66
2023-05-04T06:50:48.405Z,102357.56
2023-05-04T06:52:53.106Z,102346.88
2023-05-04T06:54:56.444Z,102348.34
2023-05-04T06:56:59.660Z,102346.28
2023-05-04T06:59:02.915Z,102348.56
2023-05-04T07:01:09.073Z,102348.31
2023-05-04T07:03:12.686Z,102339.28
2023-05-04T07:05:15.906Z,102351.19
2023-05-04T07:07:19.207Z,102348.16
2023-05-04T07:09:23.915Z,102336.34
2023-05-04T07:11:28.028Z,102337.72
2023-05-04T07:13:31.648Z,102333.00
2023-05-04T07:15:34.899Z,102326.56
2023-05-04T07:17:38.460Z,102327.16
2023-05-04T07:19:41.747Z,102331.19
2023-05-04T07:21:44.958Z,102329.22
2023-05-04T07:23:48.146Z,102328.16
2023-05-04T07:25:53.685Z,102330.66
2023-05-04T07:27:57.095Z,102327.88
2023-05-04T07:30:01.425Z,102325.91
2023-05-04T07:32:05.127Z,102322.19
2023-05-04T07:34:08.444Z,102321.84
2023-05-04T07:36:11.674Z,102317.97
2023-05-04T07:38:15.123Z,102317.50
2023-05-04T07:40:18.439Z,102313.72
2023-05-04T07:42:23.611Z,102308.25
2023-05-04T07:44:26.894Z,102310.59
2023-05-04T07:46:30.236Z,102307.75
2023-05-04T07:48:34.699Z,102304.03
2023-05-04T07:50:38.349Z,102299.41
2023-05-04T07:52:41.715Z,102302.50
2023-05-04T07:54:44.904Z,102303.06
2023-05-04T07:56:48.220Z,102309.63
2023-05-04T07:58:52.822Z,102308.41
2023-05-04T08:00:56.196Z,102303.78
2023-05-04T08:02:59.612Z,102303.47
2023-05-04T08:05:02.961Z,102301.38
2023-05-04T08:07:06.212Z,102294.03
2023-05-04T08:09:09.727Z,102291.00
2023-05-04T08:11:20.748Z,102285.44
2023-05-04T08:13:24.306Z,102286.66
2023-05-04T08:15:29.112Z,102283.63
2023-05-04T08:17:32.368Z,102290.28
2023-05-04T08:19:35.864Z,102291.63
2023-05-04T08:21:40.398Z,102282.63
2023-05-04T08:23:43.616Z,102283.13
2023-05-04T08:25:47.142Z,102281.88
2023-05-04T08:27:50.560Z,102282.38
2023-05-04T08:29:53.790Z,102279.50
2023-05-04T08:32:01.023Z,102277.63
2023-05-04T08:34:04.757Z,102266.94
2023-05-04T08:36:09.539Z,102271.34
2023-05-04T08:38:12.826Z,102268.78
2023-05-04T08:40:16.862Z,102264.38
2023-05-04T08:42:31.355Z,102265.75
2023-05-04T08:44:36.171Z,102267.00
2023-05-04T08:46:41.561Z,102255.03
2023-05-04T08:48:46.454Z,102256.22
2023-05-04T08:50:50.204Z,102260.09
2023-05-04T08:52:54.323Z,102256.09
2023-05-04T08:54:58.752Z,102258.41
2023-05-04T08:57:03.804Z,102253.72
2023-05-04T08:59:09.620Z,102255.97
2023-05-04T09:01:13.425Z,102262.78
2023-05-04T09:03:17.590Z,102255.28
2023-05-04T09:05:22.435Z,102258.31
2023-05-04T09:07:25.649Z,102255.38
2023-05-04T09:09:31.435Z,102244.84
2023-05-04T09:11:34.713Z,102243.97
2023-05-04T09:13:38.667Z,102243.53
2023-05-04T09:15:42.435Z,102248.22
2023-05-04T09:20:01.144Z,102240.13
2023-05-04T09:22:17.368Z,102238.06
2023-05-04T09:24:27.858Z,102236.00
2023-05-04T09:26:32.033Z,102236.63
2023-05-04T09:28:36.883Z,102234.75
2023-05-04T09:30:40.102Z,102241.63
2023-05-04T09:32:47.335Z,102235.97
2023-05-04T09:34:51.701Z,102225.63
2023-05-04T09:37:02.048Z,102225.59
2023-05-04T09:39:13.657Z,102220.38
2023-05-04T09:41:17.050Z,102221.47
2023-05-04T09:43:20.305Z,102215.72
2023-05-04T09:45:23.670Z,102215.91
2023-05-04T09:47:34.340Z,102221.13
2023-05-04T09:49:38.913Z,102222.00
2023-05-04T09:51:43.493Z,102218.56
2023-05-04T09:53:49.287Z,102222.06
2023-05-04T09:56:06.508Z,102213.41
2023-05-04T09:58:11.701Z,102220.84
2023-05-04T10:00:17.390Z,102209.84
2023-05-04T10:02:23.058Z,102206.00
2023-05-04T10:04:27.178Z,102204.13
2023-05-04T10:06:31.371Z,102204.13
2023-05-04T10:08:34.601Z,102205.06
2023-05-04T10:10:40.494Z,102200.50
2023-05-04T10:12:47.051Z,102200.31
2023-05-04T10:14:50.409Z,102198.41
2023-05-04T10:17:01.763Z,102196.50
2023-05-04T10:19:33.400Z,102192.06
2023-05-04T10:21:44.974Z,102198.19
2023-05-04T10:24:12.442Z,102187.59
2023-05-04T10:26:31.110Z,102191.00
2023-05-04T10:28:51.134Z,102190.59
2023-05-04T10:30:58.681Z,102184.88
2023-05-04T10:33:02.617Z,102179.38
2023-05-04T10:35:07.231Z,102173.84
2023-05-04T10:37:17.808Z,102166.66
2023-05-04T10:39:21.671Z,102171.72
2023-05-04T10:41:25.074Z,102170.56
2023-05-04T10:43:29.999Z,102164.72
2023-05-04T10:45:38.814Z,102160.78
2023-05-04T10:47:43.102Z,102156.00
2023-05-04T10:49:46.348Z,102153.97
2023-05-04T10:51:49.845Z,102149.44
2023-05-04T10:53:54.068Z,102143.06
2023-05-04T10:55:57.471Z,102142.09
2023-05-04T10:58:00.773Z,102137.53
2023-05-04T11:00:04.450Z,102135.53
2023-05-04T11:02:09.632Z,102135.16
2023-05-04T11:04:22.815Z,102133.03
2023-05-04T11:06:26.492Z,102126.03
2023-05-04T11:08:30.635Z,102129.88
2023-05-04T11:10:33.911Z,102124.78
2023-05-04T11:12:39.400Z,102114.19
2023-05-04T11:14:43.558Z,102116.84
2023-05-04T11:16:46.929Z,102119.25
2023-05-04T11:18:51.916Z,102120.22
2023-05-04T11:20:56.120Z,102116.13
2023-05-04T11:22:59.927Z,102106.97
2023-05-04T11:25:04.097Z,102108.00
2023-05-04T11:27:07.464Z,102102.75
2023-05-04T11:29:14.450Z,102102.56
2023-05-04T11:31:18.975Z,102095.16
2023-05-04T11:33:22.293Z,102096.66
2023-05-04T11:35:27.388Z,102089.56
2023-05-04T11:37:30.996Z,102098.84
2023-05-04T11:39:34.590Z,102095.75
2023-05-04T11:41:38.419Z,102092.84
2023-05-04T11:43:43.737Z,102097.81
2023-05-04T11:45:49.616Z,102093.22
2023-05-04T11:47:53.698Z,102092.38
2023-05-04T11:49:57.093Z,102086.34
2023-05-04T11:52:08.446Z,102078.84
2023-05-04T11:54:20.361Z,102078.00
2023-05-04T11:56:24.374Z,102071.38
2023-05-04T11:58:28.190Z,102066.78
2023-05-04T12:00:40.116Z,102067.03
2023-05-04T12:02:43.695Z,102061.97
2023-05-04T12:04:47.334Z,102064.97
2023-05-04T12:06:50.660Z,102069.44
2023-05-04T12:09:03.244Z,102066.78
2023-05-04T12:11:13.437Z,102059.06
2023-05-04T12:13:18.009Z,102053.88
2023-05-04T12:15:29.663Z,102058.06
2023-05-04T12:17:42.580Z,102051.91
2023-05-04T12:19:49.619Z,102052.22
2023-05-04T12:21:53.849Z,102054.50
2023-05-04T12:23:59.005Z,102053.75
2023-05-04T12:26:02.416Z,102051.63
2023-05-04T12:28:05.725Z,102045.56
2023-05-04T12:30:10.206Z,102048.16
2023-05-04T12:32:13.570Z,102047.41
2023-05-04T12:34:16.961Z,102041.78
2023-05-04T12:36:20.158Z,102039.84
2023-05-04T12:38:23.488Z,102036.34
2023-05-04T12:40:28.890Z,102029.41
2023-05-04T12:42:32.674Z,102031.28
2023-05-04T12:44:36.095Z,102030.59
2023-05-04T12:46:39.322Z,102020.94
2023-05-04T12:48:42.530Z,102023.31
2023-05-04T12:50:45.987Z,102019.88
2023-05-04T12:52:49.370Z,102020.63
2023-05-04T12:54:52.583Z,102028.06
2023-05-04T12:56:58.486Z,102023.00
2023-05-04T12:59:01.732Z,102018.34
2023-05-04T13:01:05.178Z,102020.19
2023-05-04T13:03:08.749Z,102028.88
2023-05-04T13:05:13.094Z,102018.19
2023-05-04T13:07:16.254Z,102019.84
2023-05-04T13:09:20.707Z,102005.84
2023-05-04T13:11:25.018Z,102012.28
2023-05-04T13:13:29.916Z,102006.94
2023-05-04T13:15:33.340Z,102005.84
2023-05-04T13:17:36.959Z,101996.69
2023-05-04T13:19:40.134Z,101996.69
2023-05-04T13:21:44.163Z,101993.50
2023-05-04T13:23:47.385Z,101985.94
2023-05-04T13:25:51.173Z,101975.59
2023-05-04T13:27:55.083Z,101974.59
2023-05-04T13:30:02.079Z,101959.56
2023-05-04T13:32:05.393Z,101966.03
2023-05-04T13:34:08.685Z,101958.69
2023-05-04T13:36:11.869Z,101950.22
2023-05-04T13:38:15.113Z,101946.81
2023-05-04T13:40:18.465Z,101961.16
2023-05-04T13:42:21.719Z,101952.75
2023-05-04T13:44:25.100Z,101942.97
2023-05-04T13:46:29.826Z,101952.81
2023-05-04T13:48:34.121Z,101944.66
2023-05-04T13:50:37.667Z,101947.47
2023-05-04T13:52:40.815Z,101948.31
2023-05-04T13:54:44.037Z,101935.69
2023-05-04T13:56:48.610Z,101944.38
2023-05-04T13:58:53.866Z,101938.44
2023-05-04T14:00:57.865Z,101937.84
2023-05-04T14:03:02.712Z,101939.53
2023-05-04T14:05:07.550Z,101925.50
2023-05-04T14:07:11.019Z,101927.47
2023-05-04T14:09:14.183Z,101922.97
2023-05-04T14:11:17.495Z,101919.88
2023-05-04T14:13:20.728Z,101909.91
2023-05-04T14:15:23.962Z,101914.25
2023-05-04T14:17:27.288Z,101920.56
2023-05-04T14:19:31.834Z,101907.53
2023-05-04T14:21:36.994Z,101909.22
2023-05-04T14:23:41.183Z,101910.91
2023-05-04T14:25:51.415Z,101906.50
2023-05-04T14:27:54.565Z,101895.06
2023-05-04T14:29:59.301Z,101905.75
2023-05-04T14:32:02.693Z,101904.06
2023-05-04T14:34:06.824Z,101893.97
2023-05-04T14:36:12.294Z,101895.94
2023-05-04T14:38:15.503Z,101886.69
2023-05-04T14:40:18.836Z,101880.91
2023-05-04T14:42:22.203Z,101875.44
2023-05-04T14:44:27.335Z,101872.00
2023-05-04T14:46:31.192Z,101878.50
2023-05-04T14:48:34.514Z,101883.56
2023-05-04T14:50:37.802Z,101881.88
2023-05-04T14:52:42.441Z,101880.94
2023-05-04T14:54:45.943Z,101886.56
2023-05-04T14:56:50.890Z,101880.75
2023-05-04T14:58:54.148Z,101878.50
2023-05-04T15:00:57.517Z,101884.41
2023-05-04T15:03:00.896Z,101869.22
2023-05-04T15:05:04.598Z,101879.38
2023-05-04T15:07:08.325Z,101876.22
2023-05-04T15:09:12.924Z,101878.50
2023-05-04T15:11:17.042Z,101875.91
2023-05-04T15:13:21.315Z,101875.06
2023-05-04T15:15:24.477Z,101875.56
2023-05-04T15:17:27.677Z,101866.88
2023-05-04T15:19:31.031Z,101868.06
2023-05-04T15:21:34.359Z,101862.50
2023-05-04T15:23:37.548Z,101855.03
2023-05-04T15:25:42.584Z,101854.94
2023-05-04T15:27:45.964Z,101857.88
2023-05-04T15:29:49.271Z,101850.94
2023-05-04T15:31:52.944Z,101847.66
2023-05-04T15:33:56.309Z,101842.31
2023-05-04T15:35:59.527Z,101856.00
2023-05-04T15:38:03.665Z,101854.38
2023-05-04T15:40:11.376Z,101846.53
2023-05-04T15:42:16.119Z,101854.13
2023-05-04T15:44:20.988Z,101844.81
2023-05-04T15:46:24.349Z,101852.00
2023-05-04T15:48:27.828Z,101845.44
2023-05-04T15:50:32.986Z,101854.84
2023-05-04T15:52:36.421Z,101848.31
2023-05-04T15:54:39.673Z,101840.13
2023-05-04T15:56:42.910Z,101847.34
2023-05-04T15:58:47.580Z,101840.13
2023-05-04T16:00:51.036Z,101844.19
2023-05-04T16:02:54.481Z,101831.66
2023-05-04T16:04:57.739Z,101829.84
2023-05-04T16:07:01.047Z,101830.63
2023-05-04T16:09:04.243Z,101834.19
2023-05-04T16:11:07.821Z,101838.47
2023-05-04T16:13:12.287Z,101824.13
2023-05-04T16:15:16.984Z,101826.19
2023-05-04T16:17:20.246Z,101828.09
2023-05-04T16:19:23.565Z,101829.06
2023-05-04T16:21:26.732Z,101830.75
2023-05-04T16:23:29.975Z,101826.19
2023-05-04T16:25:33.218Z,101821.84
2023-05-04T16:27:36.525Z,101819.31
2023-05-04T16:29:39.748Z,101816.16
2023-05-04T16:31:47.910Z,101828.75
2023-05-04T16:33:51.187Z,101817.69
2023-05-04T16:35:54.416Z,101813.66
2023-05-04T16:37:57.622Z,101815.00
2023-05-04T16:40:09.289Z,101801.25
2023-05-04T16:42:12.657Z,101808.91
2023-05-04T16:44:16.223Z,101804.28
2023-05-04T16:46:19.534Z,101810.25
2023-05-04T16:48:24.391Z,101806.22
2023-05-04T16:50:27.583Z,101803.81
2023-05-04T16:52:30.788Z,101810.16
2023-05-04T16:54:34.312Z,101813.22
2023-05-04T16:56:37.530Z,101806.69
2023-05-04T16:58:41.201Z,101812.19
2023-05-04T17:00:44.441Z,101809.75
2023-05-04T17:02:47.745Z,101809.97
2023-05-04T17:04:52.405Z,101809.97
2023-05-04T17:06:55.749Z,101808.81
2023-05-04T17:08:58.999Z,101815.34
2023-05-04T17:11:02.280Z,101795.72
2023-05-04T17:13:06.254Z,101795.94
2023-05-04T17:15:11.482Z,101787.22
2023-05-04T17:17:14.681Z,101791.25
2023-05-04T17:19:17.997Z,101802.47
2023-05-04T17:21:22.643Z,101800.50
2023-05-04T17:23:25.839Z,101811.59
2023-05-04T17:25:29.080Z,101809.47
2023-05-04T17:27:32.363Z,101804.84
2023-05-04T17:29:35.676Z,101809.06
2023-05-04T17:31:39.231Z,101816.84
2023-05-04T17:33:42.585Z,101811.47
2023-05-04T17:35:45.818Z,101813.13
2023-05-04T17:37:50.563Z,101812.19
2023-05-04T17:39:53.972Z,101816.16
2023-05-04T17:41:57.145Z,101812.94
2023-05-04T17:44:00.434Z,101816.94
2023-05-04T17:46:04.540Z,101815.66
2023-05-04T17:48:08.030Z,101816.25
2023-05-04T17:50:11.722Z,101817.81
2023-05-04T17:52:14.998Z,101822.06
2023-05-04T17:54:19.535Z,101812.28
2023-05-04T17:56:22.680Z,101822.69
2023-05-04T17:58:25.985Z,101821.66
2023-05-04T18:00:29.172Z,101813.59
2023-05-04T18:02:32.450Z,101815.19
2023-05-04T18:04:37.527Z,101815.09
2023-05-04T18:06:40.784Z,101812.41
2023-05-04T18:08:44.019Z,101814.78
2023-05-04T18:10:48.959Z,101818.03
2023-05-04T18:12:52.572Z,101815.94
2023-05-04T18:14:55.949Z,101817.44
2023-05-04T18:16:59.193Z,101822.47
2023-05-04T18:19:02.520Z,101819.66
2023-05-04T18:21:06.131Z,101825.41
2023-05-04T18:23:09.424Z,101824.06
2023-05-04T18:25:13.576Z,101829.66
2023-05-04T18:27:18.178Z,101830.03
2023-05-04T18:29:21.482Z,101839.13
2023-05-04T18:31:24.686Z,101833.44
2023-05-04T18:33:27.993Z,101834.81
2023-05-04T18:35:31.216Z,101841.41
2023-05-04T18:37:34.399Z,101836.56
2023-05-04T18:39:38.070Z,101846.53
2023-05-04T18:41:41.564Z,101842.63
2023-05-04T18:43:56.030Z,101850.06
2023-05-04T18:45:59.267Z,101847.75
2023-05-04T18:48:02.743Z,101848.97
2023-05-04T18:50:07.378Z,101844.88
2023-05-04T18:52:10.788Z,101850.28
2023-05-04T18:54:15.465Z,101849.59
2023-05-04T18:56:18.629Z,101845.59
2023-05-04T18:58:21.900Z,101855.47
2023-05-04T19:00:26.791Z,101851.25
2023-05-04T19:02:31.582Z,101854.97
2023-05-04T19:04:34.950Z,101856.97
2023-05-04T19:06:38.229Z,101851.19
2023-05-04T19:08:41.645Z,101854.03
2023-05-04T19:10:44.841Z,101847.28
2023-05-04T19:12:48.159Z,101852.75
2023-05-04T19:14:51.659Z,101850.38
2023-05-04T19:16:57.505Z,101849.75
2023-05-04T19:19:00.751Z,101849.88
2023-05-04T19:21:06.153Z,101849.19
2023-05-04T19:23:10.181Z,101860.75
2023-05-04T19:25:23.242Z,101857.47
2023-05-04T19:27:36.581Z,101859.47
2023-05-04T19:29:39.781Z,101858.69
2023-05-04T19:31:43.134Z,101857.06
2023-05-04T19:33:49.608Z,101851.13
2023-05-04T19:35:52.989Z,101857.34
2023-05-04T19:37:56.253Z,101853.09
2023-05-04T19:39:59.631Z,101856.78
2023-05-04T19:42:03.192Z,101851.72
2023-05-04T19:44:10.019Z,101858.81
2023-05-04T19:46:13.293Z,101862.50
2023-05-04T19:48:17.540Z,101852.16
2023-05-04T19:50:22.550Z,101857.56
2023-05-04T19:52:25.982Z,101852.47
2023-05-04T19:54:29.239Z,101851.72
2023-05-04T19:56:32.450Z,101851.00
2023-05-04T19:58:36.320Z,101842.41
2023-05-04T20:00:39.589Z,101846.09
2023-05-04T20:02:45.381Z,101851.47
2023-05-04T20:04:49.268Z,101844.59
2023-05-04T20:06:54.089Z,101845.59
2023-05-04T20:08:57.352Z,101840.50
2023-05-04T20:11:00.601Z,101838.88
2023-05-04T20:13:03.985Z,101845.09
2023-05-04T20:15:07.741Z,101839.84
2023-05-04T20:17:11.028Z,101837.38
2023-05-04T20:19:14.199Z,101842.69
2023-05-04T20:21:17.692Z,101841.84
2023-05-04T20:23:22.375Z,101840.16
2023-05-04T20:25:27.284Z,101831.53
2023-05-04T20:27:30.476Z,101837.69
2023-05-04T20:29:33.838Z,101844.69
2023-05-04T20:31:37.292Z,101849.09
2023-05-04T20:33:40.478Z,101839.53
2023-05-04T20:35:44.178Z,101840.44
2023-05-04T20:37:47.850Z,101843.13
2023-05-04T20:39:53.956Z,101830.13
2023-05-04T20:41:58.052Z,101840.59
2023-05-04T20:44:01.383Z,101833.66
2023-05-04T20:46:05.035Z,101834.56
2023-05-04T20:48:08.353Z,101831.94
2023-05-04T20:50:12.136Z,101836.34
2023-05-04T20:52:15.438Z,101837.19
2023-05-04T20:54:18.699Z,101835.50
2023-05-04T20:56:23.272Z,101837.19
2023-05-04T20:58:26.559Z,101831.94
2023-05-04T21:00:31.004Z,101834.56
2023-05-04T21:02:35.899Z,101835.50
2023-05-04T21:04:39.129Z,101836.41
2023-05-04T21:06:42.462Z,101839.88
2023-05-04T21:08:45.732Z,101832.03
2023-05-04T21:10:49.034Z,101837.25
2023-05-04T21:12:53.676Z,101832.88
2023-05-04T21:14:56.991Z,101830.25
2023-05-04T21:17:00.273Z,101830.25
2023-05-04T21:19:03.455Z,101833.78
2023-05-04T21:21:07.094Z,101826.84
2023-05-04T21:23:10.348Z,101836.47
2023-05-04T21:25:13.625Z,101828.69
2023-05-04T21:27:16.844Z,101833.94
2023-05-04T21:29:21.479Z,101833.09
2023-05-04T21:31:24.964Z,101835.63
2023-05-04T21:33:28.195Z,101833.94
2023-05-04T21:35:31.677Z,101828.69
2023-05-04T21:37:35.023Z,101833.94
2023-05-04T21:39:38.230Z,101827.00
2023-05-04T21:41:41.529Z,101828.69
2023-05-04T21:43:45.418Z,101832.22
2023-05-04T21:45:50.084Z,101831.38
2023-05-04T21:47:53.385Z,101833.16
2023-05-04T21:49:56.654Z,101831.44
2023-05-04T21:52:00.001Z,101832.38
2023-05-04T21:54:03.275Z,101835.91
2023-05-04T21:56:10.948Z,101834.19
2023-05-04T21:58:16.537Z,101822.03
2023-05-04T22:00:20.408Z,101825.56
2023-05-04T22:02:25.126Z,101823.81
2023-05-04T22:04:28.551Z,101824.66
2023-05-04T22:06:31.794Z,101818.56
2023-05-04T22:08:35.425Z,101819.41
2023-05-04T22:10:38.939Z,101812.47
2023-05-04T22:12:42.243Z,101821.28
2023-05-04T22:14:45.672Z,101814.34
2023-05-04T22:16:49.188Z,101816.13
2023-05-04T22:18:53.800Z,101818.81
2023-05-04T22:20:57.011Z,101820.56
2023-05-04T22:23:00.278Z,101817.09
2023-05-04T22:25:03.644Z,101813.63
2023-05-04T22:27:07.860Z,101820.66
2023-05-04T22:29:11.248Z,101815.41
2023-05-04T22:31:14.431Z,101820.66
2023-05-04T22:33:17.682Z,101822.34
2023-05-04T22:35:22.522Z,101820.66
2023-05-04T22:37:25.755Z,101820.66
2023-05-04T22:39:29.023Z,101824.09
2023-05-04T22:41:32.188Z,101822.34
2023-05-04T22:43:36.264Z,101822.34
2023-05-04T22:45:40.231Z,101833.66
2023-05-04T22:47:43.710Z,101823.25
2023-05-04T22:49:47.078Z,101830.19
2023-05-04T22:51:51.880Z,101827.56
2023-05-04T22:53:55.225Z,101824.97
2023-05-04T22:55:58.542Z,101820.66
2023-05-04T22:58:01.756Z,101822.34
2023-05-04T23:00:07.681Z,101822.34
2023-05-04T23:02:14.406Z,101822.34
2023-05-04T23:04:18.264Z,101820.66
2023-05-04T23:06:21.456Z,101825.88
2023-05-04T23:08:26.492Z,101823.31
2023-05-04T23:10:29.930Z,101813.72
2023-05-04T23:12:33.210Z,101819.88
2023-05-04T23:14:36.553Z,101821.63
2023-05-04T23:16:40.080Z,101823.41
2023-05-04T23:18:43.330Z,101816.41
2023-05-04T23:20:46.583Z,101815.53
2023-05-04T23:22:49.839Z,101819.06
2023-05-04T23:24:54.498Z,101817.38
2023-05-04T23:26:57.744Z,101820.06
2023-05-04T23:29:01.010Z,101813.97
2023-05-04T23:31:04.429Z,101817.50
2023-05-04T23:33:07.822Z,101823.59
2023-05-04T23:35:11.542Z,101814.91
2023-05-04T23:37:14.903Z,101817.66
2023-05-04T23:39:18.199Z,101817.66
2023-05-04T23:41:22.952Z,101811.63